sensor_id;sensor_type;location;lat;lon;timestamp;pressure;altitude;pressure_sealevel;temperature;humidity
26807;BME280;14380;49.910;6.792;2023-12-20T00:01:35;98820.03;;;7.29;100.00
26807;BME280;14380;49.910;6.792;2023-12-20T00:04:02;98811.94;;;7.13;100.00
26807;BME280;14380;49.910;6.792;2023-12-20T00:06:29;98807.97;;;7.25;100.00
26807;BME280;14380;49.910;6.792;2023-12-20T00:08:57;98812.69;;;7.37;100.00
26807;BME280;14380;49.910;6.792;2023-12-20T00:11:24;98811.31;;;7.28;100.00
26807;BME280;14380;49.910;6.792;2023-12-20T00:13:51;98806.97;;;7.27;100.00
26807;BME280;14380;49.910;6.792;2023-12-20T00:16:20;98798.44;;;7.00;100.00
26807;BME280;14380;49.910;6.792;2023-12-20T00:18:47;98793.72;;;7.31;100.00
26807;BME280;14380;49.910;6.792;2023-12-20T00:21:13;98791.34;;;7.24;100.00
26807;BME280;14380;49.910;6.792;2023-12-20T00:23:40;98805.63;;;7.39;100.00
26807;BME280;14380;49.910;6.792;2023-12-20T00:26:08;98799.78;;;7.33;100.00
26807;BME280;14380;49.910;6.792;2023-12-20T00:28:34;98814.50;;;7.14;100.00
26807;BME280;14380;49.910;6.792;2023-12-20T00:31:01;98805.28;;;7.26;100.00
26807;BME280;14380;49.910;6.792;2023-12-20T00:33:27;98797.38;;;7.06;100.00
26807;BME280;14380;49.910;6.792;2023-12-20T00:35:54;98787.06;;;7.44;100.00
26807;BME280;14380;49.910;6.792;2023-12-20T00:38:20;98784.69;;;7.38;100.00
26807;BME280;14380;49.910;6.792;2023-12-20T00:40:48;98783.38;;;7.48;100.00
26807;BME280;14380;49.910;6.792;2023-12-20T00:43:16;98788.63;;;7.05;100.00
26807;BME280;14380;49.910;6.792;2023-12-20T00:45:43;98794.56;;;7.31;100.00
26807;BME280;14380;49.910;6.792;2023-12-20T00:48:09;98790.56;;;7.22;100.00
26807;BME280;14380;49.910;6.792;2023-12-20T00:50:36;98789.31;;;7.31;100.00
26807;BME280;14380;49.910;6.792;2023-12-20T00:53:03;98779.13;;;7.23;100.00
26807;BME280;14380;49.910;6.792;2023-12-20T00:55:31;98793.88;;;7.48;100.00
26807;BME280;14380;49.910;6.792;2023-12-20T00:57:57;98805.03;;;7.33;100.00
26807;BME280;14380;49.910;6.792;2023-12-20T01:00:27;98792.69;;;7.35;100.00
26807;BME280;14380;49.910;6.792;2023-12-20T01:02:54;98793.25;;;7.21;100.00
26807;BME280;14380;49.910;6.792;2023-12-20T01:05:21;98796.13;;;7.14;100.00
26807;BME280;14380;49.910;6.792;2023-12-20T01:07:48;98794.31;;;7.17;100.00
26807;BME280;14380;49.910;6.792;2023-12-20T01:10:16;98807.44;;;7.17;100.00
26807;BME280;14380;49.910;6.792;2023-12-20T01:12:44;98803.72;;;7.43;100.00
26807;BME280;14380;49.910;6.792;2023-12-20T01:15:11;98814.16;;;7.44;100.00
26807;BME280;14380;49.910;6.792;2023-12-20T01:17:39;98810.59;;;7.25;100.00
26807;BME280;14380;49.910;6.792;2023-12-20T01:20:09;98792.75;;;7.54;100.00
26807;BME280;14380;49.910;6.792;2023-12-20T01:22:36;98795.25;;;7.14;100.00
26807;BME280;14380;49.910;6.792;2023-12-20T01:25:03;98786.41;;;7.17;100.00
26807;BME280;14380;49.910;6.792;2023-12-20T01:27:30;98796.34;;;7.31;100.00
26807;BME280;14380;49.910;6.792;2023-12-20T01:29:57;98791.22;;;7.27;100.00
26807;BME280;14380;49.910;6.792;2023-12-20T01:32:24;98795.00;;;7.20;100.00
26807;BME280;14380;49.910;6.792;2023-12-20T01:34:52;98808.31;;;7.38;100.00
26807;BME280;14380;49.910;6.792;2023-12-20T01:37:18;98792.34;;;7.22;100.00
26807;BME280;14380;49.910;6.792;2023-12-20T01:39:45;98796.25;;;7.11;100.00
26807;BME280;14380;49.910;6.792;2023-12-20T01:42:12;98805.53;;;7.20;100.00
26807;BME280;14380;49.910;6.792;2023-12-20T01:44:39;98796.72;;;7.21;100.00
26807;BME280;14380;49.910;6.792;2023-12-20T01:47:05;98786.63;;;7.33;100.00
26807;BME280;14380;49.910;6.792;2023-12-20T01:49:33;98793.94;;;7.26;100.00
26807;BME280;14380;49.910;6.792;2023-12-20T01:52:01;98801.66;;;7.29;100.00
26807;BME280;14380;49.910;6.792;2023-12-20T01:54:28;98807.66;;;7.33;100.00
26807;BME280;14380;49.910;6.792;2023-12-20T01:56:55;98805.16;;;7.29;100.00
26807;BME280;14380;49.910;6.792;2023-12-20T01:59:23;98806.88;;;7.08;100.00
26807;BME280;14380;49.910;6.792;2023-12-20T02:01:50;98807.41;;;7.39;100.00
26807;BME280;14380;49.910;6.792;2023-12-20T02:04:17;98813.09;;;7.28;100.00
26807;BME280;14380;49.910;6.792;2023-12-20T02:06:46;98804.41;;;7.48;100.00
26807;BME280;14380;49.910;6.792;2023-12-20T02:09:14;98811.41;;;7.27;100.00
26807;BME280;14380;49.910;6.792;2023-12-20T02:11:41;98809.69;;;7.26;100.00
26807;BME280;14380;49.910;6.792;2023-12-20T02:14:08;98812.78;;;7.36;100.00
26807;BME280;14380;49.910;6.792;2023-12-20T02:16:34;98812.41;;;7.45;100.00
26807;BME280;14380;49.910;6.792;2023-12-20T02:19:02;98822.16;;;7.41;100.00
26807;BME280;14380;49.910;6.792;2023-12-20T02:21:33;98819.91;;;7.32;100.00
26807;BME280;14380;49.910;6.792;2023-12-20T02:24:01;98835.19;;;7.22;100.00
26807;BME280;14380;49.910;6.792;2023-12-20T02:26:27;98832.44;;;7.48;100.00
26807;BME280;14380;49.910;6.792;2023-12-20T02:28:54;98834.50;;;7.39;100.00
26807;BME280;14380;49.910;6.792;2023-12-20T02:31:21;98839.47;;;7.47;100.00
26807;BME280;14380;49.910;6.792;2023-12-20T02:33:48;98829.28;;;7.60;100.00
26807;BME280;14380;49.910;6.792;2023-12-20T02:36:15;98830.97;;;7.40;100.00
26807;BME280;14380;49.910;6.792;2023-12-20T02:38:43;98819.63;;;7.40;100.00
26807;BME280;14380;49.910;6.792;2023-12-20T02:41:09;98834.75;;;7.33;100.00
26807;BME280;14380;49.910;6.792;2023-12-20T02:43:36;98821.66;;;7.54;100.00
26807;BME280;14380;49.910;6.792;2023-12-20T02:46:03;98824.53;;;7.48;100.00
26807;BME280;14380;49.910;6.792;2023-12-20T02:48:29;98833.66;;;7.39;100.00
26807;BME280;14380;49.910;6.792;2023-12-20T02:50:56;98837.44;;;7.54;100.00
26807;BME280;14380;49.910;6.792;2023-12-20T02:53:22;98831.06;;;7.59;100.00
26807;BME280;14380;49.910;6.792;2023-12-20T02:55:50;98830.88;;;7.64;100.00
26807;BME280;14380;49.910;6.792;2023-12-20T02:58:17;98837.94;;;7.41;100.00
26807;BME280;14380;49.910;6.792;2023-12-20T03:00:44;98854.31;;;7.48;100.00
26807;BME280;14380;49.910;6.792;2023-12-20T03:03:11;98860.09;;;7.34;100.00
26807;BME280;14380;49.910;6.792;2023-12-20T03:05:36;98855.88;;;7.52;100.00
26807;BME280;14380;49.910;6.792;2023-12-20T03:08:03;98874.94;;;7.57;100.00
26807;BME280;14380;49.910;6.792;2023-12-20T03:10:30;98886.31;;;7.58;100.00
26807;BME280;14380;49.910;6.792;2023-12-20T03:12:58;98898.81;;;7.29;100.00
26807;BME280;14380;49.910;6.792;2023-12-20T03:15:25;98891.13;;;7.47;100.00
26807;BME280;14380;49.910;6.792;2023-12-20T03:17:52;98889.25;;;7.28;100.00
26807;BME280;14380;49.910;6.792;2023-12-20T03:20:18;98895.00;;;7.38;100.00
26807;BME280;14380;49.910;6.792;2023-12-20T03:22:45;98896.03;;;7.34;100.00
26807;BME280;14380;49.910;6.792;2023-12-20T03:25:11;98908.09;;;6.93;100.00
26807;BME280;14380;49.910;6.792;2023-12-20T03:27:38;98917.38;;;7.02;100.00
26807;BME280;14380;49.910;6.792;2023-12-20T03:30:08;98917.50;;;6.99;100.00
26807;BME280;14380;49.910;6.792;2023-12-20T03:32:34;98921.38;;;7.12;100.00
26807;BME280;14380;49.910;6.792;2023-12-20T03:35:01;98931.25;;;7.06;100.00
26807;BME280;14380;49.910;6.792;2023-12-20T03:37:28;98926.34;;;6.96;100.00
26807;BME280;14380;49.910;6.792;2023-12-20T03:39:54;98923.63;;;6.99;100.00
26807;BME280;14380;49.910;6.792;2023-12-20T03:42:21;98936.03;;;6.70;100.00
26807;BME280;14380;49.910;6.792;2023-12-20T03:44:48;98934.91;;;6.78;100.00
26807;BME280;14380;49.910;6.792;2023-12-20T03:47:16;98941.84;;;6.55;100.00
26807;BME280;14380;49.910;6.792;2023-12-20T03:49:42;98940.88;;;6.58;100.00
26807;BME280;14380;49.910;6.792;2023-12-20T03:52:09;98939.13;;;6.58;100.00
26807;BME280;14380;49.910;6.792;2023-12-20T03:54:35;98929.69;;;6.52;100.00
26807;BME280;14380;49.910;6.792;2023-12-20T03:57:02;98926.16;;;6.28;100.00
26807;BME280;14380;49.910;6.792;2023-12-20T03:59:29;98931.63;;;6.47;100.00
26807;BME280;14380;49.910;6.792;2023-12-20T04:01:56;98935.75;;;6.54;100.00
26807;BME280;14380;49.910;6.792;2023-12-20T04:04:24;98937.72;;;6.73;100.00
26807;BME280;14380;49.910;6.792;2023-12-20T04:06:51;98930.69;;;6.74;100.00
26807;BME280;14380;49.910;6.792;2023-12-20T04:09:18;98937.75;;;6.72;100.00
26807;BME280;14380;49.910;6.792;2023-12-20T04:11:44;98934.69;;;6.84;100.00
26807;BME280;14380;49.910;6.792;2023-12-20T04:14:11;98922.69;;;6.77;100.00
26807;BME280;14380;49.910;6.792;2023-12-20T04:16:37;98919.34;;;6.73;100.00
26807;BME280;14380;49.910;6.792;2023-12-20T04:19:05;98911.97;;;6.59;100.00
26807;BME280;14380;49.910;6.792;2023-12-20T04:21:33;98916.06;;;6.43;100.00
26807;BME280;14380;49.910;6.792;2023-12-20T04:23:59;98923.31;;;6.36;100.00
26807;BME280;14380;49.910;6.792;2023-12-20T04:26:26;98927.94;;;6.53;100.00
26807;BME280;14380;49.910;6.792;2023-12-20T04:28:52;98929.09;;;6.44;100.00
26807;BME280;14380;49.910;6.792;2023-12-20T04:31:19;98929.16;;;6.43;100.00
26807;BME280;14380;49.910;6.792;2023-12-20T04:33:45;98928.09;;;6.48;100.00
26807;BME280;14380;49.910;6.792;2023-12-20T04:36:12;98936.81;;;6.49;100.00
26807;BME280;14380;49.910;6.792;2023-12-20T04:38:41;98936.94;;;6.46;100.00
26807;BME280;14380;49.910;6.792;2023-12-20T04:41:07;98940.41;;;6.46;100.00
26807;BME280;14380;49.910;6.792;2023-12-20T04:43:34;98940.63;;;6.40;100.00
26807;BME280;14380;49.910;6.792;2023-12-20T04:46:01;98936.06;;;6.45;100.00
26807;BME280;14380;49.910;6.792;2023-12-20T04:48:28;98937.78;;;6.46;100.00
26807;BME280;14380;49.910;6.792;2023-12-20T04:50:55;98937.16;;;6.39;100.00
26807;BME280;14380;49.910;6.792;2023-12-20T04:53:21;98937.16;;;6.39;100.00
26807;BME280;14380;49.910;6.792;2023-12-20T04:55:50;98939.97;;;6.33;100.00
26807;BME280;14380;49.910;6.792;2023-12-20T04:58:16;98953.78;;;6.38;100.00
26807;BME280;14380;49.910;6.792;2023-12-20T05:00:43;98961.34;;;6.48;100.00
26807;BME280;14380;49.910;6.792;2023-12-20T05:03:10;98963.66;;;6.32;100.00
26807;BME280;14380;49.910;6.792;2023-12-20T05:05:36;98969.53;;;6.38;100.00
26807;BME280;14380;49.910;6.792;2023-12-20T05:08:03;98960.69;;;6.41;100.00
26807;BME280;14380;49.910;6.792;2023-12-20T05:10:30;98968.78;;;6.35;100.00
26807;BME280;14380;49.910;6.792;2023-12-20T05:12:58;98965.03;;;6.17;100.00
26807;BME280;14380;49.910;6.792;2023-12-20T05:15:24;98963.25;;;6.43;100.00
26807;BME280;14380;49.910;6.792;2023-12-20T05:17:51;98969.50;;;6.40;100.00
26807;BME280;14380;49.910;6.792;2023-12-20T05:20:17;98960.66;;;6.43;100.00
26807;BME280;14380;49.910;6.792;2023-12-20T05:22:44;98958.13;;;6.39;100.00
26807;BME280;14380;49.910;6.792;2023-12-20T05:25:11;98949.44;;;6.37;100.00
26807;BME280;14380;49.910;6.792;2023-12-20T05:27:37;98953.97;;;6.34;100.00
26807;BME280;14380;49.910;6.792;2023-12-20T05:30:08;98952.47;;;6.27;100.00
26807;BME280;14380;49.910;6.792;2023-12-20T05:32:35;98955.69;;;6.35;100.00
26807;BME280;14380;49.910;6.792;2023-12-20T05:35:01;98954.50;;;6.44;100.00
26807;BME280;14380;49.910;6.792;2023-12-20T05:37:28;98960.47;;;6.47;100.00
26807;BME280;14380;49.910;6.792;2023-12-20T05:39:55;98967.53;;;6.45;100.00
26807;BME280;14380;49.910;6.792;2023-12-20T05:42:21;98972.78;;;6.45;100.00
26807;BME280;14380;49.910;6.792;2023-12-20T05:44:51;98982.53;;;6.42;100.00
26807;BME280;14380;49.910;6.792;2023-12-20T05:47:19;98992.59;;;6.29;100.00
26807;BME280;14380;49.910;6.792;2023-12-20T05:49:45;98985.09;;;6.43;100.00
26807;BME280;14380;49.910;6.792;2023-12-20T05:52:12;98982.81;;;6.34;100.00
26807;BME280;14380;49.910;6.792;2023-12-20T05:54:38;98972.22;;;6.37;100.00
26807;BME280;14380;49.910;6.792;2023-12-20T05:57:05;98977.00;;;6.49;100.00
26807;BME280;14380;49.910;6.792;2023-12-20T05:59:32;98974.59;;;6.43;100.00
26807;BME280;14380;49.910;6.792;2023-12-20T06:01:59;98984.53;;;6.35;100.00
26807;BME280;14380;49.910;6.792;2023-12-20T06:04:27;98979.28;;;6.35;100.00
26807;BME280;14380;49.910;6.792;2023-12-20T06:06:54;98982.00;;;6.32;100.00
26807;BME280;14380;49.910;6.792;2023-12-20T06:09:20;98987.16;;;6.35;100.00
26807;BME280;14380;49.910;6.792;2023-12-20T06:11:47;98991.94;;;6.22;100.00
26807;BME280;14380;49.910;6.792;2023-12-20T06:14:14;98995.81;;;6.10;100.00
26807;BME280;14380;49.910;6.792;2023-12-20T06:16:41;98993.88;;;6.17;100.00
26807;BME280;14380;49.910;6.792;2023-12-20T06:19:08;98995.44;;;6.21;100.00
26807;BME280;14380;49.910;6.792;2023-12-20T06:21:36;98994.78;;;6.16;100.00
26807;BME280;14380;49.910;6.792;2023-12-20T06:24:03;98995.53;;;6.19;100.00
26807;BME280;14380;49.910;6.792;2023-12-20T06:26:30;98986.47;;;6.28;100.00
26807;BME280;14380;49.910;6.792;2023-12-20T06:28:57;98984.63;;;6.05;100.00
26807;BME280;14380;49.910;6.792;2023-12-20T06:31:23;98985.34;;;6.10;100.00
26807;BME280;14380;49.910;6.792;2023-12-20T06:33:50;98988.47;;;6.21;100.00
26807;BME280;14380;49.910;6.792;2023-12-20T06:36:22;98984.44;;;6.11;100.00
26807;BME280;14380;49.910;6.792;2023-12-20T06:38:51;98988.03;;;6.08;100.00
26807;BME280;14380;49.910;6.792;2023-12-20T06:41:20;98985.19;;;6.15;100.00
26807;BME280;14380;49.910;6.792;2023-12-20T06:43:46;98986.25;;;6.09;100.00
26807;BME280;14380;49.910;6.792;2023-12-20T06:46:13;98993.63;;;5.96;100.00
26807;BME280;14380;49.910;6.792;2023-12-20T06:48:40;98989.38;;;6.20;100.00
26807;BME280;14380;49.910;6.792;2023-12-20T06:51:10;98990.78;;;6.31;100.00
26807;BME280;14380;49.910;6.792;2023-12-20T06:53:37;98995.28;;;6.00;100.00
26807;BME280;14380;49.910;6.792;2023-12-20T06:56:06;98997.50;;;6.13;100.00
26807;BME280;14380;49.910;6.792;2023-12-20T06:58:34;98998.63;;;6.04;100.00
26807;BME280;14380;49.910;6.792;2023-12-20T07:01:00;99002.78;;;6.11;100.00
26807;BME280;14380;49.910;6.792;2023-12-20T07:03:27;99000.59;;;5.97;100.00
26807;BME280;14380;49.910;6.792;2023-12-20T07:05:54;99002.56;;;5.90;100.00
26807;BME280;14380;49.910;6.792;2023-12-20T07:08:20;98995.88;;;6.08;100.00
26807;BME280;14380;49.910;6.792;2023-12-20T07:10:47;98998.44;;;5.81;100.00
26807;BME280;14380;49.910;6.792;2023-12-20T07:13:15;98993.19;;;6.10;100.00
26807;BME280;14380;49.910;6.792;2023-12-20T07:15:42;98990.22;;;6.21;100.00
26807;BME280;14380;49.910;6.792;2023-12-20T07:18:09;99004.56;;;6.10;100.00
26807;BME280;14380;49.910;6.792;2023-12-20T07:20:35;99002.00;;;6.34;100.00
26807;BME280;14380;49.910;6.792;2023-12-20T07:23:02;98993.06;;;5.86;100.00
26807;BME280;14380;49.910;6.792;2023-12-20T07:25:29;99001.22;;;6.05;100.00
26807;BME280;14380;49.910;6.792;2023-12-20T07:27:57;99003.59;;;6.40;100.00
26807;BME280;14380;49.910;6.792;2023-12-20T07:30:25;99008.06;;;6.36;100.00
26807;BME280;14380;49.910;6.792;2023-12-20T07:32:52;99020.06;;;6.44;100.00
26807;BME280;14380;49.910;6.792;2023-12-20T07:35:20;99011.91;;;6.26;100.00
26807;BME280;14380;49.910;6.792;2023-12-20T07:37:47;99010.06;;;6.28;100.00
26807;BME280;14380;49.910;6.792;2023-12-20T07:40:14;99017.00;;;6.31;100.00
26807;BME280;14380;49.910;6.792;2023-12-20T07:42:42;99014.50;;;6.26;100.00
26807;BME280;14380;49.910;6.792;2023-12-20T07:45:09;99010.16;;;6.52;100.00
26807;BME280;14380;49.910;6.792;2023-12-20T07:47:38;99012.09;;;6.20;100.00
26807;BME280;14380;49.910;6.792;2023-12-20T07:50:08;99010.94;;;6.29;100.00
26807;BME280;14380;49.910;6.792;2023-12-20T07:52:35;99008.53;;;6.22;100.00
26807;BME280;14380;49.910;6.792;2023-12-20T07:55:02;99018.06;;;6.50;100.00
26807;BME280;14380;49.910;6.792;2023-12-20T07:57:29;99017.50;;;6.15;100.00
26807;BME280;14380;49.910;6.792;2023-12-20T07:59:56;99023.78;;;6.36;100.00
26807;BME280;14380;49.910;6.792;2023-12-20T08:02:22;99022.97;;;6.34;100.00
26807;BME280;14380;49.910;6.792;2023-12-20T08:04:51;99019.34;;;6.38;100.00
26807;BME280;14380;49.910;6.792;2023-12-20T08:07:17;99018.97;;;6.49;100.00
26807;BME280;14380;49.910;6.792;2023-12-20T08:09:44;99026.41;;;6.36;100.00
26807;BME280;14380;49.910;6.792;2023-12-20T08:12:11;99018.34;;;6.43;100.00
26807;BME280;14380;49.910;6.792;2023-12-20T08:14:38;99019.97;;;6.20;100.00
26807;BME280;14380;49.910;6.792;2023-12-20T08:17:04;99020.84;;;6.20;100.00
26807;BME280;14380;49.910;6.792;2023-12-20T08:19:31;99016.34;;;6.49;100.00
26807;BME280;14380;49.910;6.792;2023-12-20T08:21:59;99027.00;;;6.45;100.00
26807;BME280;14380;49.910;6.792;2023-12-20T08:24:25;99032.38;;;6.42;100.00
26807;BME280;14380;49.910;6.792;2023-12-20T08:26:52;99040.13;;;6.45;100.00
26807;BME280;14380;49.910;6.792;2023-12-20T08:29:20;99030.66;;;6.66;100.00
26807;BME280;14380;49.910;6.792;2023-12-20T08:31:52;99034.66;;;6.25;100.00
26807;BME280;14380;49.910;6.792;2023-12-20T08:34:18;99023.09;;;6.57;100.00
26807;BME280;14380;49.910;6.792;2023-12-20T08:36:45;99021.19;;;6.62;100.00
26807;BME280;14380;49.910;6.792;2023-12-20T08:39:13;99022.03;;;6.37;100.00
26807;BME280;14380;49.910;6.792;2023-12-20T08:41:40;99033.78;;;6.52;100.00
26807;BME280;14380;49.910;6.792;2023-12-20T08:44:07;99029.56;;;6.46;100.00
26807;BME280;14380;49.910;6.792;2023-12-20T08:46:33;99036.31;;;6.53;100.00
26807;BME280;14380;49.910;6.792;2023-12-20T08:49:00;99033.56;;;6.83;100.00
26807;BME280;14380;49.910;6.792;2023-12-20T08:51:27;99040.88;;;6.48;100.00
26807;BME280;14380;49.910;6.792;2023-12-20T08:53:54;99040.19;;;6.68;100.00
26807;BME280;14380;49.910;6.792;2023-12-20T08:56:22;99035.63;;;6.99;100.00
26807;BME280;14380;49.910;6.792;2023-12-20T08:58:49;99027.25;;;6.64;100.00
26807;BME280;14380;49.910;6.792;2023-12-20T09:01:15;99023.38;;;6.74;100.00
26807;BME280;14380;49.910;6.792;2023-12-20T09:03:42;99035.75;;;6.70;100.00
26807;BME280;14380;49.910;6.792;2023-12-20T09:06:17;99036.53;;;6.47;100.00
26807;BME280;14380;49.910;6.792;2023-12-20T09:08:44;99037.72;;;6.89;100.00
26807;BME280;14380;49.910;6.792;2023-12-20T09:11:10;99040.28;;;6.91;100.00
26807;BME280;14380;49.910;6.792;2023-12-20T09:13:37;99034.81;;;6.97;100.00
26807;BME280;14380;49.910;6.792;2023-12-20T09:16:04;99035.50;;;7.02;100.00
26807;BME280;14380;49.910;6.792;2023-12-20T09:18:30;99042.06;;;6.90;100.00
26807;BME280;14380;49.910;6.792;2023-12-20T09:20:57;99047.75;;;6.78;100.00
26807;BME280;14380;49.910;6.792;2023-12-20T09:23:24;99048.75;;;6.99;100.00
26807;BME280;14380;49.910;6.792;2023-12-20T09:25:51;99054.22;;;6.67;100.00
26807;BME280;14380;49.910;6.792;2023-12-20T09:28:18;99052.19;;;6.76;100.00
26807;BME280;14380;49.910;6.792;2023-12-20T09:30:44;99055.94;;;6.68;100.00
26807;BME280;14380;49.910;6.792;2023-12-20T09:33:11;99061.66;;;6.80;100.00
26807;BME280;14380;49.910;6.792;2023-12-20T09:35:38;99049.34;;;6.82;100.00
26807;BME280;14380;49.910;6.792;2023-12-20T09:38:04;99046.78;;;6.80;100.00
26807;BME280;14380;49.910;6.792;2023-12-20T09:40:32;99039.06;;;6.76;100.00
26807;BME280;14380;49.910;6.792;2023-12-20T09:43:04;99046.88;;;7.26;100.00
26807;BME280;14380;49.910;6.792;2023-12-20T09:45:31;99052.34;;;7.20;100.00
26807;BME280;14380;49.910;6.792;2023-12-20T09:47:58;99053.88;;;7.02;100.00
26807;BME280;14380;49.910;6.792;2023-12-20T09:50:24;99051.09;;;7.07;100.00
26807;BME280;14380;49.910;6.792;2023-12-20T09:52:53;99058.31;;;7.25;100.00
26807;BME280;14380;49.910;6.792;2023-12-20T09:55:21;99060.00;;;7.26;100.00
26807;BME280;14380;49.910;6.792;2023-12-20T09:57:49;99050.44;;;7.25;100.00
26807;BME280;14380;49.910;6.792;2023-12-20T10:00:16;99045.78;;;7.32;100.00
26807;BME280;14380;49.910;6.792;2023-12-20T10:02:49;99041.84;;;7.20;100.00
26807;BME280;14380;49.910;6.792;2023-12-20T10:05:17;99042.53;;;7.25;100.00
26807;BME280;14380;49.910;6.792;2023-12-20T10:07:44;99032.84;;;7.27;100.00
26807;BME280;14380;49.910;6.792;2023-12-20T10:10:13;99024.31;;;7.44;100.00
26807;BME280;14380;49.910;6.792;2023-12-20T10:12:39;99023.41;;;7.46;100.00
26807;BME280;14380;49.910;6.792;2023-12-20T10:15:08;99022.03;;;7.35;100.00
26807;BME280;14380;49.910;6.792;2023-12-20T10:17:35;99016.78;;;7.35;100.00
26807;BME280;14380;49.910;6.792;2023-12-20T10:20:03;99017.59;;;7.37;100.00
26807;BME280;14380;49.910;6.792;2023-12-20T10:22:34;99017.22;;;7.47;100.00
26807;BME280;14380;49.910;6.792;2023-12-20T10:25:01;99014.25;;;7.56;100.00
26807;BME280;14380;49.910;6.792;2023-12-20T10:27:27;99012.00;;;7.91;100.00
26807;BME280;14380;49.910;6.792;2023-12-20T10:29:54;99015.88;;;7.36;100.00
26807;BME280;14380;49.910;6.792;2023-12-20T10:32:26;99005.94;;;7.67;100.00
26807;BME280;14380;49.910;6.792;2023-12-20T10:34:54;99011.44;;;7.61;100.00
26807;BME280;14380;49.910;6.792;2023-12-20T10:37:21;99005.59;;;7.54;100.00
26807;BME280;14380;49.910;6.792;2023-12-20T10:39:50;99010.13;;;7.50;100.00
26807;BME280;14380;49.910;6.792;2023-12-20T10:42:19;99000.94;;;7.61;100.00
26807;BME280;14380;49.910;6.792;2023-12-20T10:44:47;99010.06;;;7.74;100.00
26807;BME280;14380;49.910;6.792;2023-12-20T10:47:15;99011.31;;;7.41;100.00
26807;BME280;14380;49.910;6.792;2023-12-20T10:49:43;99005.63;;;7.52;100.00
26807;BME280;14380;49.910;6.792;2023-12-20T10:52:11;99003.31;;;7.44;100.00
26807;BME280;14380;49.910;6.792;2023-12-20T10:54:38;99007.47;;;7.50;100.00
26807;BME280;14380;49.910;6.792;2023-12-20T10:57:05;99002.63;;;7.39;100.00
26807;BME280;14380;49.910;6.792;2023-12-20T10:59:33;99005.91;;;7.68;100.00
26807;BME280;14380;49.910;6.792;2023-12-20T11:02:02;99002.03;;;7.55;100.00
26807;BME280;14380;49.910;6.792;2023-12-20T11:04:36;99007.91;;;7.62;100.00
26807;BME280;14380;49.910;6.792;2023-12-20T11:07:11;99003.50;;;7.40;100.00
26807;BME280;14380;49.910;6.792;2023-12-20T11:09:47;99009.06;;;7.07;100.00
26807;BME280;14380;49.910;6.792;2023-12-20T11:12:20;99005.16;;;7.65;100.00
26807;BME280;14380;49.910;6.792;2023-12-20T11:14:50;99002.47;;;7.20;100.00
26807;BME280;14380;49.910;6.792;2023-12-20T11:17:17;98990.50;;;7.59;100.00
26807;BME280;14380;49.910;6.792;2023-12-20T11:20:06;98986.19;;;7.56;100.00
26807;BME280;14380;49.910;6.792;2023-12-20T11:22:34;98970.50;;;7.55;100.00
26807;BME280;14380;49.910;6.792;2023-12-20T11:25:04;98977.06;;;7.21;100.00
26807;BME280;14380;49.910;6.792;2023-12-20T11:27:31;98971.13;;;7.16;100.00
26807;BME280;14380;49.910;6.792;2023-12-20T11:29:58;98968.72;;;7.55;100.00
26807;BME280;14380;49.910;6.792;2023-12-20T11:32:29;98971.28;;;7.35;100.00
26807;BME280;14380;49.910;6.792;2023-12-20T11:34:56;98967.91;;;7.31;100.00
26807;BME280;14380;49.910;6.792;2023-12-20T11:37:28;98981.44;;;7.44;100.00
26807;BME280;14380;49.910;6.792;2023-12-20T11:40:00;98979.88;;;7.62;100.00
26807;BME280;14380;49.910;6.792;2023-12-20T11:42:27;98968.19;;;7.69;100.00
26807;BME280;14380;49.910;6.792;2023-12-20T11:44:55;98973.94;;;7.79;100.00
26807;BME280;14380;49.910;6.792;2023-12-20T11:47:22;98967.53;;;7.64;100.00
26807;BME280;14380;49.910;6.792;2023-12-20T11:49:49;98974.47;;;7.43;100.00
26807;BME280;14380;49.910;6.792;2023-12-20T11:52:16;98974.09;;;7.52;100.00
26807;BME280;14380;49.910;6.792;2023-12-20T11:54:43;98968.13;;;7.49;100.00
26807;BME280;14380;49.910;6.792;2023-12-20T11:57:10;98967.63;;;7.39;100.00
26807;BME280;14380;49.910;6.792;2023-12-20T11:59:37;98975.28;;;7.45;100.00
26807;BME280;14380;49.910;6.792;2023-12-20T12:02:04;98977.13;;;7.19;100.00
26807;BME280;14380;49.910;6.792;2023-12-20T12:04:30;98971.81;;;7.21;100.00
26807;BME280;14380;49.910;6.792;2023-12-20T12:06:57;98971.34;;;7.33;100.00
26807;BME280;14380;49.910;6.792;2023-12-20T12:09:23;98968.47;;;7.39;100.00
26807;BME280;14380;49.910;6.792;2023-12-20T12:11:50;98977.31;;;7.14;100.00
26807;BME280;14380;49.910;6.792;2023-12-20T12:14:18;98975.56;;;7.59;100.00
26807;BME280;14380;49.910;6.792;2023-12-20T12:16:45;98967.78;;;7.34;100.00
26807;BME280;14380;49.910;6.792;2023-12-20T12:19:20;98962.97;;;7.46;100.00
26807;BME280;14380;49.910;6.792;2023-12-20T12:21:47;98953.63;;;7.38;100.00
26807;BME280;14380;49.910;6.792;2023-12-20T12:24:13;98950.88;;;7.41;100.00
26807;BME280;14380;49.910;6.792;2023-12-20T12:26:40;98946.25;;;7.26;100.00
26807;BME280;14380;49.910;6.792;2023-12-20T12:29:07;98946.66;;;6.91;100.00
26807;BME280;14380;49.910;6.792;2023-12-20T12:31:36;98939.09;;;7.29;100.00
26807;BME280;14380;49.910;6.792;2023-12-20T12:34:02;98942.31;;;7.36;100.00
26807;BME280;14380;49.910;6.792;2023-12-20T12:36:29;98936.94;;;7.62;100.00
26807;BME280;14380;49.910;6.792;2023-12-20T12:38:56;98940.13;;;7.25;100.00
26807;BME280;14380;49.910;6.792;2023-12-20T12:41:23;98936.78;;;7.44;100.00
26807;BME280;14380;49.910;6.792;2023-12-20T12:43:49;98932.13;;;7.51;100.00
26807;BME280;14380;49.910;6.792;2023-12-20T12:46:16;98925.41;;;7.21;100.00
26807;BME280;14380;49.910;6.792;2023-12-20T12:48:44;98920.91;;;7.47;100.00
26807;BME280;14380;49.910;6.792;2023-12-20T12:51:11;98911.66;;;7.37;100.00
26807;BME280;14380;49.910;6.792;2023-12-20T12:53:42;98914.59;;;7.51;100.00
26807;BME280;14380;49.910;6.792;2023-12-20T12:56:08;98898.31;;;7.43;100.00
26807;BME280;14380;49.910;6.792;2023-12-20T12:58:35;98901.44;;;7.51;100.00
26807;BME280;14380;49.910;6.792;2023-12-20T13:01:01;98902.25;;;7.53;100.00